Data for 03/13/2014

Time Sea-Level Adjusted Pressure Absolute Pressure Temperature Relative Humidity Dew Point   
(mb) (inHg) (mb) (inHg) (C) (F) (%) (C) (F)
00:05 1020 30.12 849 25.07 -1.2 29.9 72 -5.7 21.8
00:10 1019 30.09 849 25.07 -0.9 30.4 70 -5.7 21.8
00:15 1019 30.09 848 25.04 -1 30.2 71 -5.6 22
00:20 1019 30.09 848 25.04 -1.3 29.6 72 -5.7 21.7
00:25 1019 30.09 848 25.04 -1.7 28.9 73 -6 21.2
00:30 1019 30.09 848 25.04 -1.8 28.8 73 -6 21.2
00:35 1019 30.09 848 25.04 -1.7 29 71 -6.2 20.8
00:40 1019 30.09 848 25.04 -1.5 29.3 70 -6.2 20.8
00:45 1019 30.09 848 25.04 -1.2 29.9 68 -6.3 20.7
00:50 1019 30.09 848 25.04 -1.4 29.6 70 -6.2 20.8
00:55 1019 30.09 848 25.04 -1.5 29.4 67 -6.8 19.8
01:00 1019 30.09 848 25.04 -1 30.2 67 -6.4 20.5
01:05 1018 30.06 848 25.04 -1 30.3 66 -6.5 20.3
01:10 1018 30.06 848 25.04 -0.9 30.4 66 -6.4 20.5
01:15 1018 30.06 848 25.04 -0.9 30.4 67 -6.2 20.9
01:20 1018 30.06 848 25.04 -0.9 30.3 67 -6.2 20.8
01:25 1018 30.06 847 25.01 -0.8 30.6 67 -6.2 20.8
01:30 1018 30.06 847 25.01 -0.9 30.4 67 -6.3 20.7
01:35 1018 30.06 847 25.01 -1 30.1 68 -6.2 20.8
01:40 1018 30.06 847 25.01 -1.1 30 68 -6.3 20.7
01:45 1018 30.06 847 25.01 -0.9 30.3 67 -6.4 20.6
01:50 1018 30.06 847 25.01 -0.5 31.1 64 -6.5 20.2
01:55 1018 30.06 847 25.01 -0.2 31.6 63 -6.4 20.5
02:00 1018 30.06 847 25.01 -0.3 31.5 63 -6.5 20.3
02:05 1018 30.06 847 25.01 -0.2 31.6 62 -6.6 20.1
02:10 1018 30.06 847 25.01 -0.2 31.6 62 -6.7 20
02:15 1017 30.03 847 25.01 -0.3 31.4 63 -6.6 20.1
02:20 1017 30.03 847 25.01 -0.5 31 64 -6.6 20.2
02:25 1017 30.03 847 25.01 -1.3 29.7 66 -6.8 19.8
02:30 1017 30.03 846 24.98 -1.6 29.1 66 -7.1 19.3
02:35 1017 30.03 846 24.98 -1.3 29.7 64 -7.3 18.9
02:40 1017 30.03 846 24.98 -1.1 30.1 64 -6.9 19.5
02:45 1017 30.03 846 24.98 -1.2 29.8 65 -7.1 19.2
02:50 1017 30.03 846 24.98 -1.1 30 64 -7.1 19.2
02:55 1017 30.03 846 24.98 -1 30.2 63 -7.1 19.2
03:00 1017 30.03 846 24.98 -1 30.1 64 -7.1 19.2
03:05 1017 30.03 846 24.98 -1.1 30 64 -7.1 19.3
03:10 1017 30.03 846 24.98 -1.1 30.1 64 -7.1 19.1
03:15 1017 30.03 846 24.98 -1.2 29.8 64 -7.3 18.9
03:20 1017 30.03 846 24.98 -1.2 29.8 63 -7.5 18.6
03:25 1017 30.03 846 24.98 -0.6 30.9 60 -7.4 18.7
03:30 1017 30.03 846 24.98 -0.6 30.9 62 -7.1 19.2
03:35 1017 30.03 846 24.98 -0.7 30.8 61 -7.3 18.9
03:40 1017 30.03 846 24.98 -0.7 30.7 62 -7.2 19.1
03:45 1017 30.03 846 24.98 -0.9 30.4 63 -7.1 19.3
03:50 1017 30.03 846 24.98 -0.8 30.6 62 -7.1 19.2
03:55 1017 30.03 846 24.98 -0.8 30.5 62 -7.2 19
04:00 1017 30.03 846 24.98 -0.9 30.4 63 -7 19.3
04:05 1017 30.03 846 24.98 -1 30.2 64 -6.9 19.6
04:10 1017 30.03 846 24.98 -1.5 29.4 66 -7 19.3
04:15 1017 30.03 846 24.98 -2.2 28.1 68 -7.3 18.9
04:20 1017 30.03 846 24.98 -2.3 27.8 69 -7.2 19
04:25 1017 30.03 846 24.98 -2.5 27.4 70 -7.3 18.9
04:30 1017 30.03 846 24.98 -2.6 27.2 71 -7.2 19
04:35 1017 30.03 846 24.98 -2.7 27.1 71 -7.3 18.9
04:40 1017 30.03 846 24.98 -3.2 26.3 73 -7.4 18.7
04:45 1017 30.03 846 24.98 -3.1 26.4 72 -7.4 18.7
04:50 1017 30.03 846 24.98 -3 26.6 73 -7.2 19.1
04:55 1017 30.03 846 24.98 -3.2 26.3 70 -7.9 17.9
05:00 1017 30.03 846 24.98 -2.6 27.3 72 -7 19.3
05:05 1017 30.03 846 24.98 -2.7 27.2 70 -7.4 18.6
05:10 1017 30.03 846 24.98 -2.2 28 69 -7.2 19
05:15 1017 30.03 846 24.98 -2.2 28 68 -7.3 18.9
05:20 1017 30.03 846 24.98 -2.2 28.1 69 -7 19.3
05:25 1017 30.03 846 24.98 -2.3 27.9 71 -6.8 19.7
05:30 1017 30.03 846 24.98 -2.7 27.2 71 -7.2 19
05:35 1017 30.03 846 24.98 -3 26.6 73 -7.3 18.9
05:40 1016 30 846 24.98 -3.3 26.1 72 -7.7 18.2
05:45 1016 30 846 24.98 -3.5 25.7 73 -7.6 18.3
05:50 1016 30 846 24.98 -3.4 25.8 73 -7.6 18.3
05:55 1016 30 845 24.95 -3.5 25.6 73 -7.6 18.2
06:00 1016 30 845 24.95 -3.4 25.8 72 -7.8 18
06:05 1016 30 845 24.95 -2.8 27 70 -7.5 18.4
06:10 1016 30 845 24.95 -2.9 26.8 68 -7.9 17.7
06:15 1016 30 845 24.95 -3.3 26 71 -7.8 18
06:20 1016 30 845 24.95 -3.4 25.8 72 -7.7 18.1
06:25 1016 30 845 24.95 -3.8 25.2 75 -7.6 18.4
06:30 1016 30 845 24.95 -3.5 25.6 72 -7.8 18
06:35 1016 30 845 24.95 -3.1 26.4 70 -7.8 18
06:40 1016 30 845 24.95 -3.3 26.1 72 -7.6 18.4
06:45 1016 30 845 24.95 -3.9 24.9 74 -7.9 17.8
06:50 1016 30 845 24.95 -3.8 25.2 74 -7.9 17.9
06:55 1016 30 845 24.95 -3.8 25.2 72 -8.1 17.5
07:00 1016 30 845 24.95 -3.7 25.4 72 -8 17.5
07:05 1016 30 845 24.95 -3.3 26.1 70 -8.1 17.4
07:10 1016 30 845 24.95 -3.2 26.2 71 -7.8 17.9
07:15 1016 30 845 24.95 -3.1 26.4 69 -8.1 17.5
07:20 1016 30 845 24.95 -3.2 26.2 69 -8.1 17.4
07:25 1016 30 845 24.95 -3.6 25.5 69 -8.6 16.6
07:30 1016 30 845 24.95 -3.3 26.1 66 -8.7 16.4
07:35 1016 30 845 24.95 -2.3 27.9 62 -8.7 16.4
07:40 1016 30 845 24.95 -1.2 29.9 59 -8.2 17.3
07:45 1016 30 845 24.95 -1.1 30 61 -7.6 18.2
07:50 1016 30 845 24.95 -1.1 30 61 -7.7 18.1
07:55 1016 30 845 24.95 -0.8 30.5 58 -8 17.6
08:00 1016 30 845 24.95 -0.9 30.4 59 -7.8 17.9
08:05 1016 30 845 24.95 -1.1 30.1 60 -7.9 17.8
08:10 1016 30 845 24.95 -0.6 30.8 58 -7.9 17.7
08:15 1016 30 845 24.95 -0.8 30.5 60 -7.7 18.1
08:20 1016 30 845 24.95 -0.7 30.8 58 -7.9 17.7
08:25 1016 30 845 24.95 -0.5 31.1 59 -7.6 18.3
08:30 1016 30 845 24.95 -0.3 31.5 57 -7.8 18
08:35 1016 30 845 24.95 -0.3 31.5 56 -8.1 17.4
08:40 1016 30 845 24.95 -0.1 31.9 54 -8.2 17.2
08:45 1016 30 846 24.98 0.6 33.1 51 -8.3 17
08:50 1016 30 846 24.98 1.4 34.6 47 -8.7 16.3
08:55 1017 30.03 846 24.98 1.9 35.5 47 -8.3 17.1
09:00 1017 30.03 846 24.98 2.4 36.3 44 -8.7 16.3
09:05 1017 30.03 846 24.98 2.8 37.1 44 -8.2 17.3
09:10 1016 30 846 24.98 2.9 37.2 44 -8.2 17.2
09:15 1016 30 846 24.98 2.9 37.1 44 -8.2 17.2
09:20 1016 30 846 24.98 2 35.7 48 -7.9 17.9
09:25 1016 30 846 24.98 1.9 35.5 46 -8.4 16.9
09:30 1017 30.03 846 24.98 2.5 36.4 46 -8 17.7
09:35 1016 30 846 24.98 2.4 36.3 48 -7.6 18.4
09:40 1016 30 846 24.98 2.2 35.9 49 -7.6 18.3
09:45 1016 30 846 24.98 2.5 36.4 48 -7.5 18.5
09:50 1016 30 846 24.98 2.8 37.1 48 -7.1 19.3
09:55 1016 30 845 24.95 2.5 36.5 49 -7.1 19.2
10:00 1016 30 845 24.95 3.1 37.6 44 -8 17.6
10:05 1016 30 845 24.95 3.3 38 45 -7.5 18.6
10:10 1016 30 845 24.95 3.9 39 44 -7.2 19.1
10:15 1016 30 845 24.95 4.1 39.4 41 -8.1 17.4
10:20 1016 30 845 24.95 4.4 39.9 41 -7.6 18.3
10:25 1016 30 845 24.95 4.6 40.2 40 -8 17.6
10:30 1016 30 845 24.95 4.9 40.8 40 -7.7 18.2
10:35 1016 30 845 24.95 5.6 42.1 38 -7.5 18.5
10:40 1016 30 845 24.95 5.8 42.4 37 -7.8 17.9
10:45 1016 30 845 24.95 5.7 42.2 37 -7.9 17.8
10:50 1016 30 845 24.95 6 42.8 36 -8.1 17.4
10:55 1016 30 845 24.95 5.9 42.6 37 -7.6 18.3
11:00 1016 30 845 24.95 6 42.7 36 -8.1 17.5
11:05 1016 30 845 24.95 6.1 43 35 -8.3 17.1
11:10 1016 30 845 24.95 6.2 43.2 38 -7.1 19.2
11:15 1016 30 845 24.95 6.4 43.4 38 -7 19.5
11:20 1016 30 845 24.95 5.7 42.3 36 -8.1 17.5
11:25 1016 30 845 24.95 6.1 43 36 -7.9 17.8
11:30 1016 30 845 24.95 6.9 44.3 36 -7.3 18.8
11:35 1016 30 845 24.95 6.2 43.1 38 -7.2 19.1
11:40 1016 30 845 24.95 5.2 41.4 40 -7.3 18.8
11:45 1016 30 845 24.95 5.6 42.1 36 -8.2 17.2
11:50 1016 30 845 24.95 6 42.8 36 -8.1 17.4
11:55 1016 30 845 24.95 6.8 44.3 34 -7.9 17.8
12:00 1016 30 845 24.95 6.8 44.2 32 -8.9 16.1
12:05 1016 30 845 24.95 8.2 46.7 30 -8.3 17.1
12:10 1016 30 845 24.95 7.4 45.4 32 -8.3 17.1
12:15 1016 30 845 24.95 8.7 47.7 31 -7.4 18.6
12:20 1016 30 845 24.95 8.9 47.9 30 -7.9 17.8
12:25 1015 29.97 845 24.95 9.2 48.6 29 -7.8 17.9
12:30 1015 29.97 845 24.95 8.8 47.9 30 -7.8 18
12:35 1015 29.97 845 24.95 8.8 47.8 28 -8.9 16
12:40 1015 29.97 845 24.95 8.8 47.8 29 -8.2 17.3
12:45 1015 29.97 844 24.92 8.5 47.2 32 -7.4 18.7
12:50 1015 29.97 844 24.92 8.6 47.6 32 -7 19.3
12:55 1015 29.97 844 24.92 8.8 47.9 31 -7.2 19
13:00 1015 29.97 844 24.92 9.1 48.4 32 -6.9 19.5
13:05 1015 29.97 844 24.92 8.7 47.7 31 -7.4 18.8
13:10 1015 29.97 844 24.92 8.7 47.7 33 -6.9 19.7
13:15 1015 29.97 845 24.95 8.4 47.1 31 -7.7 18.2
13:20 1015 29.97 844 24.92 8.4 47.1 32 -7.5 18.6
13:25 1015 29.97 844 24.92 8.8 47.8 31 -7.3 18.9
13:30 1015 29.97 844 24.92 8.3 47 31 -7.6 18.3
13:35 1015 29.97 844 24.92 8 46.4 31 -8 17.5
13:40 1015 29.97 844 24.92 8.4 47 31 -7.8 17.9
13:45 1015 29.97 844 24.92 9.4 48.9 30 -7.2 19.1
13:50 1015 29.97 844 24.92 9.7 49.5 30 -7.1 19.2
13:55 1015 29.97 844 24.92 10.1 50.2 28 -7.4 18.8
14:00 1015 29.97 844 24.92 9.9 49.9 28 -7.5 18.5
14:05 1015 29.97 844 24.92 10.2 50.3 27 -7.8 17.9
14:10 1015 29.97 844 24.92 10.1 50.1 27 -8.2 17.3
14:15 1015 29.97 844 24.92 10.2 50.3 27 -8.2 17.2
14:20 1015 29.97 844 24.92 10.4 50.8 26 -8.1 17.3
14:25 1015 29.97 844 24.92 10.3 50.6 27 -7.8 17.9
14:30 1015 29.97 844 24.92 10.2 50.4 27 -7.9 17.7
14:35 1015 29.97 844 24.92 10.3 50.5 26 -8.2 17.2
14:40 1015 29.97 844 24.92 10 50 26 -8.7 16.3
14:45 1015 29.97 844 24.92 9.9 49.8 27 -8.4 16.9
14:50 1015 29.97 844 24.92 10 50.1 26 -8.5 16.6
14:55 1015 29.97 844 24.92 10 50.1 25 -8.9 16
15:00 1015 29.97 844 24.92 10.1 50.2 25 -9 15.9
15:05 1015 29.97 844 24.92 9.9 49.8 26 -8.7 16.4
15:10 1015 29.97 844 24.92 9.8 49.6 24 -9.6 14.7
15:15 1015 29.97 844 24.92 9.8 49.6 25 -9.3 15.2
15:20 1015 29.97 844 24.92 9.8 49.7 25 -9.3 15.2
15:25 1015 29.97 844 24.92 9.8 49.7 24 -9.9 14.2
15:30 1015 29.97 844 24.92 9.9 49.8 25 -9.1 15.7
15:35 1015 29.97 844 24.92 10.1 50.2 26 -8.6 16.6
15:40 1015 29.97 844 24.92 10.2 50.4 26 -8.5 16.8
15:45 1015 29.97 844 24.92 10.5 50.9 26 -8.3 17
15:50 1015 29.97 844 24.92 10.8 51.4 27 -7.5 18.4
15:55 1015 29.97 844 24.92 10.8 51.4 26 -7.7 18.1
16:00 1015 29.97 844 24.92 10.3 50.6 27 -8.1 17.4
16:05 1015 29.97 844 24.92 10 50 26 -8.5 16.7
16:10 1015 29.97 844 24.92 10 50.1 28 -7.4 18.6
16:15 1015 29.97 844 24.92 10 50 29 -7.2 19
16:20 1015 29.97 844 24.92 10.1 50.2 28 -7.3 18.8
16:25 1015 29.97 844 24.92 10.1 50.2 29 -7.2 19.1
16:30 1015 29.97 844 24.92 9.9 49.8 28 -7.6 18.3
16:35 1015 29.97 844 24.92 9.8 49.6 28 -8 17.6
16:40 1015 29.97 844 24.92 9.8 49.6 28 -8 17.5
16:45 1015 29.97 844 24.92 9.7 49.4 29 -7.6 18.3
16:50 1015 29.97 844 24.92 9.9 49.7 28 -7.6 18.3
16:55 1015 29.97 844 24.92 9.7 49.5 29 -7.6 18.4
17:00 1015 29.97 844 24.92 9.8 49.7 29 -7.5 18.6
17:05 1015 29.97 844 24.92 9.8 49.7 28 -7.6 18.3
17:10 1015 29.97 844 24.92 9.8 49.6 29 -7.5 18.6
17:15 1015 29.97 844 24.92 9.8 49.6 28 -7.9 17.8
17:20 1015 29.97 844 24.92 9.9 49.8 29 -7.4 18.8
17:25 1015 29.97 844 24.92 10 50 30 -6.9 19.6
17:30 1015 29.97 844 24.92 10 50 30 -6.6 20.1
17:35 1015 29.97 844 24.92 10 49.9 30 -6.8 19.8
17:40 1015 29.97 844 24.92 9.8 49.7 30 -7.1 19.3
17:45 1015 29.97 844 24.92 9.8 49.6 29 -7.5 18.4
17:50 1015 29.97 845 24.95 9.8 49.6 29 -7.3 18.9
17:55 1015 29.97 845 24.95 9.3 48.8 30 -7.3 18.8
18:00 1015 29.97 845 24.95 8.7 47.7 32 -7.2 19.1
18:05 1015 29.97 845 24.95 8.3 46.9 32 -7.3 18.8
18:10 1016 30 845 24.95 8 46.3 34 -7 19.4
18:15 1016 30 845 24.95 7.6 45.7 35 -6.9 19.5
18:20 1016 30 845 24.95 7.4 45.3 36 -6.7 20
18:25 1016 30 845 24.95 7.1 44.8 39 -6 21.2
18:30 1016 30 845 24.95 6.8 44.2 38 -6.6 20.2
18:35 1016 30 845 24.95 6.6 43.9 42 -5.3 22.4
18:40 1016 30 845 24.95 6.1 43 41 -6.2 20.9
18:45 1015 29.97 845 24.95 6.1 42.9 41 -6.2 20.9
18:50 1015 29.97 845 24.95 6 42.8 43 -5.5 22.1
18:55 1016 30 845 24.95 5.7 42.3 41 -6.4 20.5
19:00 1016 30 845 24.95 5.8 42.4 42 -6.3 20.7
19:05 1016 30 845 24.95 5.8 42.4 43 -5.9 21.3
19:10 1016 30 845 24.95 5.5 41.9 46 -5.2 22.6
19:15 1016 30 845 24.95 4.7 40.4 46 -6 21.2
19:20 1016 30 845 24.95 4.9 40.8 45 -6.2 20.9
19:25 1016 30 845 24.95 4.9 40.7 44 -6.3 20.7
19:30 1016 30 845 24.95 4.9 40.9 44 -6.3 20.7
19:35 1016 30 845 24.95 4.9 40.7 43 -6.7 20
19:40 1016 30 845 24.95 4.9 40.9 42 -6.8 19.7
19:45 1016 30 845 24.95 5.1 41.1 42 -6.8 19.8
19:50 1016 30 845 24.95 4.8 40.7 44 -6.3 20.7
19:55 1016 30 845 24.95 3.3 38 49 -6.4 20.5
20:00 1016 30 845 24.95 3.1 37.6 46 -7.5 18.5
20:05 1016 30 845 24.95 3.4 38.1 48 -6.7 19.9
20:10 1016 30 845 24.95 2.7 36.9 49 -6.8 19.7
20:15 1016 30 845 24.95 2.7 36.9 49 -6.9 19.6
20:20 1016 30 845 24.95 2.6 36.8 49 -7 19.4
20:25 1016 30 845 24.95 2.6 36.6 50 -6.9 19.5
20:30 1016 30 845 24.95 2.5 36.6 50 -7 19.4
20:35 1016 30 845 24.95 2.9 37.3 48 -7.1 19.2
20:40 1016 30 845 24.95 3.1 37.6 48 -6.8 19.7
20:45 1016 30 845 24.95 3 37.4 49 -6.6 20
20:50 1016 30 845 24.95 2.9 37.1 48 -7.1 19.2
20:55 1016 30 845 24.95 3 37.5 49 -6.7 19.9
21:00 1016 30 845 24.95 2.7 36.9 50 -6.8 19.8
21:05 1016 30 845 24.95 2.4 36.4 51 -6.7 19.9
21:10 1016 30 845 24.95 2.5 36.5 50 -6.9 19.5
21:15 1016 30 845 24.95 2.7 36.9 49 -6.9 19.7
21:20 1016 30 845 24.95 2.9 37.3 48 -7.1 19.2
21:25 1016 30 845 24.95 2.9 37.3 47 -7.4 18.8
21:30 1016 30 846 24.98 2.8 37 47 -7.3 18.9
21:35 1016 30 845 24.95 2.7 36.9 48 -7.2 19
21:40 1016 30 846 24.98 2.7 36.9 48 -7.1 19.2
21:45 1016 30 846 24.98 2.6 36.7 50 -6.9 19.6
21:50 1016 30 846 24.98 2.5 36.5 48 -7.3 18.8
21:55 1016 30 845 24.95 2.9 37.3 44 -8.1 17.5
22:00 1016 30 845 24.95 3.6 38.6 43 -7.8 18
22:05 1016 30 845 24.95 3.9 38.9 41 -8.1 17.4
22:10 1016 30 845 24.95 3.9 39.1 42 -7.8 17.9
22:15 1016 30 845 24.95 3.5 38.2 46 -7 19.4
22:20 1016 30 845 24.95 2.8 37.1 49 -6.7 19.9
22:25 1016 30 846 24.98 2.4 36.3 51 -6.8 19.8
22:30 1016 30 846 24.98 2.5 36.4 50 -6.8 19.7
22:35 1016 30 846 24.98 2.7 36.8 51 -6.6 20.1
22:40 1016 30 846 24.98 2.4 36.4 53 -6.3 20.7
22:45 1016 30 845 24.95 2.4 36.4 50 -6.9 19.6
22:50 1016 30 845 24.95 2.3 36.2 51 -6.9 19.5
22:55 1016 30 845 24.95 2.3 36.1 51 -6.8 19.8
23:00 1016 30 846 24.98 2.4 36.3 49 -7.2 19.1
23:05 1016 30 846 24.98 2.4 36.4 50 -7 19.4
23:10 1016 30 846 24.98 2.2 36 50 -7.2 19.1
23:15 1016 30 846 24.98 1.9 35.5 51 -7.2 19
23:20 1016 30 846 24.98 1.6 35 52 -7.1 19.3
23:25 1016 30 846 24.98 1.4 34.5 53 -7.2 19.1
23:30 1016 30 846 24.98 1.3 34.4 54 -7 19.4
23:35 1016 30 846 24.98 1.3 34.4 53 -7.3 18.9
23:40 1016 30 846 24.98 1.3 34.4 53 -7.2 19
23:45 1016 30 846 24.98 1.3 34.3 53 -7.2 19.1
23:50 1016 30 846 24.98 1.1 34 55 -7 19.4
23:55 1016 30 846 24.98 1.1 34 54 -7.2 19
24:00 1017 30.03 846 24.98 1 33.8 54 -7.2 19